Time;durP1;ratioP1;P1;durP2;ratioP2;P2;SDS_P1;SDS_P2;PMS_P1;PMS_P2;Temp;Humidity;BMP_temperature;BMP_pressure;BME280_temperature;BME280_humidity;BME280_pressure;Samples;Min_cycle;Max_cycle;Signal;HPM_P1;HPM_P2
2023/03/14 00:02:08;;;;;;;11.00;5.70;;;9.10;62.40;;;;;;6066904;23;20182;-73
2023/03/14 00:04:37;;;;;;;13.23;5.67;;;9.10;62.60;;;;;;6066123;23;20174;-73
2023/03/14 00:07:05;;;;;;;11.77;5.20;;;9.10;62.60;;;;;;6065865;23;20174;-74
2023/03/14 00:09:33;;;;;;;11.27;5.07;;;9.10;62.50;;;;;;6066826;23;20230;-73
2023/03/14 00:12:02;;;;;;;11.47;5.93;;;9.10;62.40;;;;;;6065187;23;20884;-73
2023/03/14 00:14:32;;;;;;;7.73;4.57;;;9.00;62.80;;;;;;6065503;23;20632;-73
2023/03/14 00:17:01;;;;;;;8.43;5.00;;;9.10;62.90;;;;;;6064417;23;20174;-73
2023/03/14 00:19:29;;;;;;;10.53;4.80;;;9.00;62.60;;;;;;6066206;23;20174;-74
2023/03/14 00:21:57;;;;;;;10.20;5.07;;;9.10;62.70;;;;;;6064976;23;20179;-73
2023/03/14 00:24:26;;;;;;;8.23;4.67;;;9.00;62.50;;;;;;6062821;23;20245;-73
2023/03/14 00:26:54;;;;;;;9.03;4.77;;;9.10;62.40;;;;;;6063625;23;20174;-73
2023/03/14 00:29:22;;;;;;;12.73;4.97;;;9.10;62.30;;;;;;6062876;23;20178;-73
2023/03/14 00:31:53;;;;;;;11.00;4.80;;;9.00;62.00;;;;;;6065719;23;20198;-73
2023/03/14 00:34:21;;;;;;;9.67;4.60;;;9.10;62.00;;;;;;6061786;23;20167;-73
2023/03/14 00:36:50;;;;;;;8.70;4.60;;;9.00;61.90;;;;;;6062527;23;20988;-73
2023/03/14 00:39:18;;;;;;;9.10;4.70;;;9.10;61.90;;;;;;6066071;23;20540;-73
2023/03/14 00:41:47;;;;;;;9.47;5.27;;;9.10;61.80;;;;;;6065350;23;20535;-73
2023/03/14 00:44:15;;;;;;;8.83;4.43;;;9.00;61.70;;;;;;6064481;23;20184;-74
2023/03/14 00:46:44;;;;;;;12.13;5.03;;;9.10;61.70;;;;;;6062020;23;20179;-74
2023/03/14 00:49:13;;;;;;;8.87;4.30;;;9.00;61.70;;;;;;6064607;23;20492;-73
2023/03/14 00:51:42;;;;;;;9.07;4.60;;;9.00;61.70;;;;;;6063966;23;20198;-73
2023/03/14 00:54:10;;;;;;;10.43;4.63;;;9.00;61.70;;;;;;6064187;23;20178;-74
2023/03/14 00:56:38;;;;;;;8.77;4.70;;;9.00;61.80;;;;;;6063081;23;20253;-73
2023/03/14 00:59:06;;;;;;;9.70;4.77;;;9.00;61.90;;;;;;6060908;23;20536;-73
2023/03/14 01:01:35;;;;;;;9.20;4.80;;;9.00;61.90;;;;;;6065412;23;20175;-73
2023/03/14 01:04:03;;;;;;;11.90;4.90;;;8.90;61.90;;;;;;6064053;23;20617;-73
2023/03/14 01:06:33;;;;;;;6.93;3.97;;;8.90;61.90;;;;;;6064492;23;20222;-73
2023/03/14 01:09:02;;;;;;;7.17;4.13;;;8.90;62.00;;;;;;6065531;23;20629;-73
2023/03/14 01:11:33;;;;;;;8.57;4.87;;;8.90;62.50;;;;;;6064915;23;20228;-74
2023/03/14 01:14:02;;;;;;;9.07;4.97;;;8.80;62.30;;;;;;6059675;23;20162;-73
2023/03/14 01:16:33;;;;;;;9.43;4.60;;;8.80;62.30;;;;;;6060224;23;20230;-73
2023/03/14 01:19:02;;;;;;;11.40;4.20;;;8.80;62.30;;;;;;6064209;23;20162;-74
2023/03/14 01:21:34;;;;;;;10.27;4.20;;;8.80;62.30;;;;;;6065117;23;20178;-73
2023/03/14 01:24:05;;;;;;;7.37;4.10;;;8.70;62.20;;;;;;6064115;23;20166;-73
2023/03/14 01:26:35;;;;;;;10.13;4.43;;;8.70;62.40;;;;;;6063928;23;20159;-73
2023/03/14 01:29:04;;;;;;;8.83;4.70;;;8.70;62.40;;;;;;6062255;23;20163;-73
2023/03/14 01:31:32;;;;;;;8.83;4.50;;;8.70;62.50;;;;;;6064305;23;20202;-73
2023/03/14 01:34:01;;;;;;;8.87;4.40;;;8.70;62.50;;;;;;6064390;23;20170;-73
2023/03/14 01:36:29;;;;;;;7.13;3.50;;;8.70;62.50;;;;;;6063953;23;20175;-73
2023/03/14 01:39:00;;;;;;;9.37;3.57;;;8.60;62.60;;;;;;6063700;23;20170;-73
2023/03/14 01:41:28;;;;;;;7.13;4.27;;;8.60;62.60;;;;;;6065149;23;20289;-73
2023/03/14 01:43:57;;;;;;;7.60;3.50;;;8.60;62.70;;;;;;6064249;23;20179;-73
2023/03/14 01:46:30;;;;;;;10.90;4.67;;;8.60;62.90;;;;;;6063180;23;20230;-74
2023/03/14 01:49:08;;;;;;;10.00;4.33;;;8.60;62.90;;;;;;6064772;23;20167;-73
2023/03/14 01:51:41;;;;;;;9.27;4.43;;;8.50;63.10;;;;;;6065729;23;20186;-73
2023/03/14 01:54:17;;;;;;;7.97;4.00;;;8.50;63.20;;;;;;6065712;23;20163;-73
2023/03/14 01:56:50;;;;;;;8.37;3.80;;;8.50;63.30;;;;;;6062961;23;20312;-73
2023/03/14 01:59:19;;;;;;;10.17;4.57;;;8.40;63.30;;;;;;6063387;23;20193;-73
2023/03/14 02:01:49;;;;;;;8.13;4.30;;;8.40;63.50;;;;;;6065888;23;20174;-73
2023/03/14 02:04:19;;;;;;;8.90;4.33;;;8.40;63.50;;;;;;6065725;23;20230;-73
2023/03/14 02:06:56;;;;;;;7.83;4.73;;;8.40;63.60;;;;;;6064524;23;20245;-73
2023/03/14 02:09:25;;;;;;;10.97;4.50;;;8.30;63.60;;;;;;6063714;23;20198;-73
2023/03/14 02:11:54;;;;;;;9.00;4.77;;;8.30;63.60;;;;;;6063535;23;20216;-73
2023/03/14 02:14:30;;;;;;;8.33;4.30;;;8.20;63.60;;;;;;6060831;23;20174;-73
2023/03/14 02:16:59;;;;;;;8.37;4.40;;;8.20;63.60;;;;;;6061623;23;20248;-73
2023/03/14 02:19:40;;;;;;;9.83;4.30;;;8.20;63.70;;;;;;6063250;23;20163;-74
2023/03/14 02:22:11;;;;;;;8.10;4.33;;;8.20;63.80;;;;;;6063021;23;20174;-73
2023/03/14 02:24:47;;;;;;;9.40;4.40;;;8.20;63.90;;;;;;6063394;23;20165;-73
2023/03/14 02:27:18;;;;;;;11.50;4.67;;;8.20;64.00;;;;;;6063177;23;20530;-73
2023/03/14 02:29:52;;;;;;;8.80;4.40;;;8.10;64.10;;;;;;6063492;23;20487;-73
2023/03/14 02:32:22;;;;;;;9.00;4.63;;;8.10;64.20;;;;;;6063302;23;20190;-73
2023/03/14 02:34:53;;;;;;;11.77;4.40;;;8.10;64.30;;;;;;6060701;23;20163;-73
2023/03/14 02:37:24;;;;;;;9.50;4.47;;;8.10;64.40;;;;;;6062385;23;20710;-73
2023/03/14 02:39:52;;;;;;;10.95;4.97;;;8.00;64.40;;;;;;6062153;23;20391;-73
2023/03/14 02:42:22;;;;;;;14.57;5.33;;;8.00;65.30;;;;;;6063888;23;20182;-73
2023/03/14 02:44:54;;;;;;;9.43;4.00;;;8.00;65.20;;;;;;6062946;23;20166;-73
2023/03/14 02:47:30;;;;;;;9.50;3.93;;;8.00;65.20;;;;;;6062412;23;20227;-73
2023/03/14 02:50:03;;;;;;;10.30;5.13;;;8.00;65.20;;;;;;6060642;23;20166;-73
2023/03/14 02:52:32;;;;;;;7.53;3.90;;;8.00;65.20;;;;;;6065011;23;20238;-73
2023/03/14 02:55:00;;;;;;;12.43;4.57;;;7.90;65.10;;;;;;6062423;23;20644;-73
2023/03/14 02:57:30;;;;;;;7.13;3.97;;;7.90;65.00;;;;;;6055938;23;20210;-73
2023/03/14 02:59:59;;;;;;;9.93;4.63;;;7.90;65.10;;;;;;6060018;23;20228;-74
2023/03/14 03:02:28;;;;;;;8.07;5.00;;;7.90;65.20;;;;;;6060059;23;20177;-73
2023/03/14 03:04:56;;;;;;;10.00;4.60;;;7.90;65.30;;;;;;6062865;23;20178;-73
2023/03/14 03:07:25;;;;;;;8.80;4.80;;;7.80;65.30;;;;;;6057960;23;20185;-73
2023/03/14 03:09:53;;;;;;;10.53;5.00;;;7.80;65.40;;;;;;6058697;23;20207;-73
2023/03/14 03:12:21;;;;;;;14.63;5.10;;;7.80;65.40;;;;;;6057975;23;20209;-73
2023/03/14 03:14:51;;;;;;;11.17;5.63;;;7.80;65.50;;;;;;6058884;23;20677;-73
2023/03/14 03:17:19;;;;;;;9.10;5.33;;;7.80;65.50;;;;;;6059416;23;20177;-73
2023/03/14 03:19:47;;;;;;;11.40;5.40;;;7.70;65.50;;;;;;6062273;23;20181;-73
2023/03/14 03:22:16;;;;;;;11.47;5.23;;;7.70;65.90;;;;;;6059026;23;20236;-73
2023/03/14 03:24:45;;;;;;;15.67;6.13;;;7.70;65.80;;;;;;6062757;23;20174;-73
2023/03/14 03:27:13;;;;;;;8.83;5.27;;;7.60;66.10;;;;;;6061307;23;20576;-73
2023/03/14 03:29:41;;;;;;;11.20;5.60;;;7.60;66.00;;;;;;6063494;23;20176;-72
2023/03/14 03:32:11;;;;;;;16.90;7.20;;;7.60;66.10;;;;;;6060417;23;20208;-74
2023/03/14 03:34:39;;;;;;;20.23;7.10;;;7.60;66.40;;;;;;6065582;23;20180;-73
2023/03/14 03:37:08;;;;;;;19.83;9.00;;;7.60;66.40;;;;;;6064535;23;20272;-73
2023/03/14 03:39:36;;;;;;;16.23;7.70;;;7.60;66.50;;;;;;6066620;23;20636;-73
2023/03/14 03:42:04;;;;;;;15.57;8.83;;;7.50;66.50;;;;;;6062752;23;20397;-74
2023/03/14 03:44:33;;;;;;;18.20;9.17;;;7.50;66.50;;;;;;6065357;23;20181;-73
2023/03/14 03:47:01;;;;;;;21.80;10.67;;;7.50;66.70;;;;;;6065994;23;20178;-74
2023/03/14 03:49:32;;;;;;;22.70;11.30;;;7.50;66.80;;;;;;6067662;23;20198;-73
2023/03/14 03:52:01;;;;;;;31.50;13.20;;;7.50;66.80;;;;;;6066040;23;20726;-73
2023/03/14 03:54:29;;;;;;;29.63;13.30;;;7.50;66.80;;;;;;6063923;23;20227;-73
2023/03/14 03:56:58;;;;;;;26.80;13.37;;;7.50;66.90;;;;;;6061912;23;20206;-73
2023/03/14 03:59:26;;;;;;;28.97;12.77;;;7.50;67.00;;;;;;6064920;23;20229;-73
2023/03/14 04:01:55;;;;;;;28.13;13.67;;;7.50;67.10;;;;;;6065947;23;20206;-73
2023/03/14 04:04:23;;;;;;;25.60;12.77;;;7.50;67.20;;;;;;6066443;23;21354;-73
2023/03/14 04:06:53;;;;;;;25.97;13.30;;;7.50;67.30;;;;;;6065168;23;20185;-73
2023/03/14 04:09:22;;;;;;;22.53;11.63;;;7.50;67.40;;;;;;6066037;23;20213;-72
2023/03/14 04:11:50;;;;;;;25.43;11.50;;;7.40;67.40;;;;;;6064490;23;20177;-72
2023/03/14 04:14:18;;;;;;;30.37;12.33;;;7.40;67.40;;;;;;6066249;23;20205;-72
2023/03/14 04:16:47;;;;;;;22.97;11.83;;;7.40;67.50;;;;;;6066301;23;20631;-73
2023/03/14 04:19:15;;;;;;;19.03;10.97;;;7.40;67.50;;;;;;6063599;23;20173;-73
2023/03/14 04:21:46;;;;;;;20.33;10.43;;;7.40;67.60;;;;;;6064342;23;20178;-73
2023/03/14 04:24:16;;;;;;;23.83;11.17;;;7.40;67.70;;;;;;6061696;23;20217;-73
2023/03/14 04:26:44;;;;;;;24.47;11.73;;;7.40;68.00;;;;;;6064884;23;20962;-73
2023/03/14 04:29:13;;;;;;;24.73;11.30;;;7.40;68.00;;;;;;6062394;23;20177;-74
2023/03/14 04:31:41;;;;;;;20.13;11.73;;;7.40;68.20;;;;;;6063300;23;20173;-74
2023/03/14 04:34:09;;;;;;;18.27;9.57;;;7.30;68.10;;;;;;6065357;23;20209;-74
2023/03/14 04:36:38;;;;;;;20.77;11.07;;;7.30;68.20;;;;;;6066630;23;20699;-74
2023/03/14 04:39:07;;;;;;;19.33;9.60;;;7.30;68.20;;;;;;6062455;23;20181;-73
2023/03/14 04:41:37;;;;;;;24.77;9.47;;;7.30;68.10;;;;;;6066026;23;20185;-74
2023/03/14 04:44:05;;;;;;;19.80;9.13;;;7.30;68.30;;;;;;6063795;23;20241;-74
2023/03/14 04:46:34;;;;;;;25.00;8.17;;;7.30;68.20;;;;;;6060728;23;20209;-73
2023/03/14 04:49:02;;;;;;;22.20;8.60;;;7.30;68.30;;;;;;6062179;23;20699;-74
2023/03/14 04:51:31;;;;;;;22.97;9.07;;;7.30;68.30;;;;;;6065067;23;20562;-73
2023/03/14 04:53:59;;;;;;;26.53;8.97;;;7.30;68.40;;;;;;6065268;23;20205;-74
2023/03/14 04:56:28;;;;;;;27.87;10.17;;;7.30;68.40;;;;;;6064069;23;20185;-74
2023/03/14 04:58:58;;;;;;;22.67;9.37;;;7.30;68.40;;;;;;6060238;23;20172;-73
2023/03/14 05:01:26;;;;;;;25.00;9.93;;;7.40;68.70;;;;;;6062779;23;20177;-74
2023/03/14 05:03:54;;;;;;;22.33;9.73;;;7.40;68.80;;;;;;6048041;23;20189;-74
2023/03/14 05:06:23;;;;;;;20.40;10.00;;;7.40;69.00;;;;;;6062573;23;20233;-73
2023/03/14 05:08:51;;;;;;;21.20;8.60;;;7.40;69.00;;;;;;6061281;23;20173;-74
2023/03/14 05:11:20;;;;;;;18.90;9.30;;;7.50;69.20;;;;;;6060404;23;20181;-73
2023/03/14 05:13:48;;;;;;;18.80;8.57;;;7.40;69.00;;;;;;6064809;23;20196;-74
2023/03/14 05:16:18;;;;;;;23.60;9.37;;;7.40;68.80;;;;;;6062459;23;20181;-74
2023/03/14 05:18:46;;;;;;;17.20;9.03;;;7.50;69.00;;;;;;6063365;23;20173;-75
2023/03/14 05:21:14;;;;;;;21.43;8.87;;;7.40;69.30;;;;;;6059391;23;20228;-73
2023/03/14 05:23:43;;;;;;;19.23;8.40;;;7.40;69.50;;;;;;6060711;23;20174;-74
2023/03/14 05:26:11;;;;;;;16.47;8.60;;;7.40;69.30;;;;;;6059413;23;20207;-75
2023/03/14 05:28:39;;;;;;;17.63;8.67;;;7.40;69.30;;;;;;6064265;23;20655;-74
2023/03/14 05:31:08;;;;;;;26.17;10.03;;;7.50;69.50;;;;;;6064745;23;20224;-74
2023/03/14 05:33:38;;;;;;;15.37;8.90;;;7.40;69.60;;;;;;6063609;23;20620;-74
2023/03/14 05:36:10;;;;;;;25.77;9.73;;;7.40;69.60;;;;;;6062689;23;20259;-77
2023/03/14 05:38:38;;;;;;;24.53;9.90;;;7.40;69.90;;;;;;6062372;23;20182;-74
2023/03/14 05:41:07;;;;;;;17.87;9.37;;;7.40;69.70;;;;;;6062836;23;20174;-74
2023/03/14 05:43:35;;;;;;;22.83;10.43;;;7.40;69.60;;;;;;6065372;23;20177;-73
2023/03/14 05:46:04;;;;;;;18.10;8.77;;;7.40;69.60;;;;;;6066723;23;20173;-75
2023/03/14 05:48:32;;;;;;;20.67;9.63;;;7.40;69.50;;;;;;6065828;23;20211;-74
2023/03/14 05:51:02;;;;;;;17.47;9.43;;;7.50;69.60;;;;;;6064278;23;20240;-74
2023/03/14 05:53:31;;;;;;;22.40;11.17;;;7.50;69.40;;;;;;6062436;23;20208;-73
2023/03/14 05:55:59;;;;;;;24.10;10.17;;;7.50;69.90;;;;;;6063422;23;20265;-74
2023/03/14 05:58:27;;;;;;;20.50;9.77;;;7.60;70.20;;;;;;6066485;23;20202;-74
2023/03/14 06:00:56;;;;;;;23.03;10.97;;;7.60;70.00;;;;;;6065103;23;20178;-73
2023/03/14 06:03:24;;;;;;;22.47;10.63;;;7.60;69.80;;;;;;6067152;23;20240;-73
2023/03/14 06:05:53;;;;;;;22.90;10.00;;;7.70;69.70;;;;;;6066325;23;20178;-74
2023/03/14 06:08:22;;;;;;;23.63;10.60;;;7.70;69.70;;;;;;6067578;23;20178;-73
2023/03/14 06:10:51;;;;;;;24.10;10.13;;;7.80;69.70;;;;;;6065832;23;20177;-73
2023/03/14 06:13:19;;;;;;;16.70;9.03;;;7.80;70.10;;;;;;6064973;23;20200;-73
2023/03/14 06:15:48;;;;;;;18.70;8.43;;;7.80;70.20;;;;;;6064738;23;20500;-74
2023/03/14 06:18:16;;;;;;;16.73;9.37;;;7.80;70.10;;;;;;6065057;23;20209;-73
2023/03/14 06:20:45;;;;;;;15.93;8.93;;;7.80;70.20;;;;;;6063744;23;20641;-73
2023/03/14 06:23:13;;;;;;;16.43;8.93;;;7.90;70.30;;;;;;6063388;23;20211;-73
2023/03/14 06:25:43;;;;;;;18.33;9.33;;;7.90;70.00;;;;;;6063743;23;20238;-73
2023/03/14 06:28:11;;;;;;;21.77;8.70;;;7.90;70.20;;;;;;6064358;23;20656;-73
2023/03/14 06:30:40;;;;;;;15.53;7.73;;;8.10;70.00;;;;;;6065026;23;20174;-73
2023/03/14 06:33:08;;;;;;;14.00;7.50;;;8.20;70.00;;;;;;6063115;23;20193;-73
2023/03/14 06:35:36;;;;;;;14.77;7.13;;;8.20;69.80;;;;;;6064674;23;20203;-73
2023/03/14 06:38:05;;;;;;;16.30;7.20;;;8.20;69.60;;;;;;6059872;23;20620;-73
2023/03/14 06:40:33;;;;;;;19.30;6.60;;;8.30;69.50;;;;;;6063767;23;20174;-72
2023/03/14 06:43:03;;;;;;;12.77;6.57;;;8.40;69.20;;;;;;6064539;23;20178;-73
2023/03/14 06:45:31;;;;;;;11.03;6.30;;;8.50;69.10;;;;;;6064968;23;20175;-74
2023/03/14 06:47:59;;;;;;;13.50;5.93;;;8.60;68.40;;;;;;6064318;23;20182;-73
2023/03/14 06:50:28;;;;;;;10.50;6.10;;;8.70;67.90;;;;;;6065512;23;20194;-73
2023/03/14 06:52:56;;;;;;;12.93;5.97;;;8.80;66.90;;;;;;6067514;23;20178;-73
2023/03/14 06:55:25;;;;;;;10.63;5.43;;;8.90;67.00;;;;;;6062435;23;20241;-73
2023/03/14 06:57:54;;;;;;;10.68;6.43;;;8.90;67.00;;;;;;6061325;23;20474;-74
2023/03/14 07:00:24;;;;;;;11.57;6.33;;;9.10;66.80;;;;;;6065853;23;20178;-73
2023/03/14 07:02:53;;;;;;;14.00;5.83;;;9.10;66.00;;;;;;6065992;23;20612;-73
2023/03/14 07:05:21;;;;;;;17.63;6.50;;;9.20;66.10;;;;;;6065181;23;20171;-74
2023/03/14 07:07:49;;;;;;;10.53;5.70;;;9.30;65.60;;;;;;6064367;23;20178;-73
2023/03/14 07:10:18;;;;;;;10.73;6.07;;;9.40;65.60;;;;;;6062522;23;20620;-72
2023/03/14 07:12:46;;;;;;;12.33;6.10;;;9.50;65.20;;;;;;6063207;23;20223;-73
2023/03/14 07:15:15;;;;;;;9.57;5.77;;;9.60;64.10;;;;;;6065029;23;20202;-73
2023/03/14 07:17:49;;;;;;;11.90;5.80;;;9.70;63.10;;;;;;6065138;23;20462;-74
2023/03/14 07:20:18;;;;;;;10.87;5.43;;;9.80;63.60;;;;;;6064781;23;20167;-74
2023/03/14 07:22:49;;;;;;;13.63;5.63;;;9.90;62.50;;;;;;6061373;23;20269;-73
2023/03/14 07:25:18;;;;;;;9.50;4.53;;;9.90;61.50;;;;;;6061266;23;20190;-73
2023/03/14 07:27:47;;;;;;;7.43;4.60;;;10.10;61.90;;;;;;6063944;23;20170;-73
2023/03/14 07:30:16;;;;;;;13.93;5.07;;;10.20;61.50;;;;;;6064728;23;20178;-74
2023/03/14 07:32:44;;;;;;;9.17;4.63;;;10.20;60.70;;;;;;6063694;23;20174;-73
2023/03/14 07:35:14;;;;;;;14.83;4.30;;;10.40;60.80;;;;;;6065274;23;20576;-73
2023/03/14 07:37:42;;;;;;;9.77;4.37;;;10.50;61.00;;;;;;6063478;23;20263;-74
2023/03/14 07:40:14;;;;;;;8.90;4.40;;;10.60;60.50;;;;;;6063731;23;20624;-75
2023/03/14 07:42:43;;;;;;;7.00;4.20;;;10.60;59.40;;;;;;6062904;23;20163;-74
2023/03/14 07:45:12;;;;;;;12.53;4.53;;;10.70;58.90;;;;;;6063758;23;20177;-74
2023/03/14 07:47:40;;;;;;;8.90;4.90;;;10.80;57.40;;;;;;6062910;23;20624;-74
2023/03/14 07:50:10;;;;;;;6.87;3.83;;;10.90;57.90;;;;;;6063309;23;20174;-74
2023/03/14 07:52:40;;;;;;;10.07;3.67;;;11.00;58.20;;;;;;6063881;23;20175;-74
2023/03/14 07:55:09;;;;;;;6.47;3.53;;;11.10;56.50;;;;;;6060283;23;20198;-75
2023/03/14 07:57:37;;;;;;;8.70;4.83;;;11.20;57.00;;;;;;6056997;23;20266;-75
2023/03/14 08:00:08;;;;;;;6.53;4.13;;;11.30;56.60;;;;;;6065105;23;20175;-74
2023/03/14 08:02:36;;;;;;;8.17;4.43;;;11.30;56.40;;;;;;6064954;23;20167;-74
2023/03/14 08:05:05;;;;;;;11.37;4.93;;;11.40;56.10;;;;;;6064065;23;20179;-75
2023/03/14 08:07:33;;;;;;;7.30;4.33;;;11.50;56.10;;;;;;6064115;23;20246;-73
2023/03/14 08:10:04;;;;;;;9.60;5.07;;;11.60;56.50;;;;;;6065025;23;20378;-75
2023/03/14 08:12:32;;;;;;;8.30;4.63;;;11.70;56.30;;;;;;6065502;23;20643;-74
2023/03/14 08:15:00;;;;;;;10.60;4.97;;;11.80;56.10;;;;;;6062692;23;20202;-73
2023/03/14 08:17:29;;;;;;;14.47;4.30;;;11.90;56.30;;;;;;6060227;23;20198;-73
2023/03/14 08:19:57;;;;;;;7.73;4.70;;;12.00;55.70;;;;;;6064551;23;20758;-74
2023/03/14 08:22:25;;;;;;;7.43;4.30;;;12.10;55.70;;;;;;6064408;23;20238;-73
2023/03/14 08:24:54;;;;;;;7.23;4.10;;;12.10;54.40;;;;;;6066568;23;20206;-73
2023/03/14 08:27:23;;;;;;;6.83;4.37;;;12.20;54.80;;;;;;6066085;23;20651;-73
2023/03/14 08:29:52;;;;;;;8.93;4.53;;;12.40;54.50;;;;;;6064662;23;20170;-74
2023/03/14 08:32:22;;;;;;;10.90;4.30;;;12.40;54.40;;;;;;6067010;23;20226;-73
2023/03/14 08:34:51;;;;;;;10.07;4.63;;;12.60;54.70;;;;;;6063574;23;20676;-73
2023/03/14 08:37:19;;;;;;;7.13;4.43;;;12.60;53.80;;;;;;6065325;23;20182;-74
2023/03/14 08:39:54;;;;;;;11.47;4.53;;;12.60;53.20;;;;;;6066212;23;20162;-75
2023/03/14 08:42:24;;;;;;;8.73;4.27;;;12.80;53.20;;;;;;6067487;23;20206;-74
2023/03/14 08:44:53;;;;;;;7.67;4.30;;;12.80;52.40;;;;;;6065633;23;20178;-76
2023/03/14 08:47:22;;;;;;;10.07;4.73;;;12.90;53.00;;;;;;6067365;23;20222;-74
2023/03/14 08:49:50;;;;;;;9.80;4.50;;;13.00;52.20;;;;;;6062561;23;20174;-73
2023/03/14 08:52:18;;;;;;;10.13;4.87;;;13.00;50.40;;;;;;6065292;23;20174;-74
2023/03/14 08:54:47;;;;;;;7.53;4.53;;;13.10;51.60;;;;;;6066597;23;20202;-74
2023/03/14 08:57:16;;;;;;;7.07;3.87;;;13.20;52.30;;;;;;6065024;23;20198;-74
2023/03/14 08:59:45;;;;;;;7.33;4.23;;;13.30;52.10;;;;;;6067313;23;20174;-73
2023/03/14 09:02:14;;;;;;;15.87;5.53;;;13.40;52.30;;;;;;6065569;23;20177;-74
2023/03/14 09:04:42;;;;;;;14.00;4.90;;;13.50;52.00;;;;;;6064244;23;20639;-74
2023/03/14 09:07:11;;;;;;;9.47;4.57;;;13.60;52.10;;;;;;6064697;23;20175;-73
2023/03/14 09:09:39;;;;;;;13.10;5.30;;;13.60;51.00;;;;;;6064821;23;20175;-74
2023/03/14 09:12:08;;;;;;;11.63;4.83;;;13.70;51.30;;;;;;6066816;23;20171;-74
2023/03/14 09:14:37;;;;;;;11.40;5.57;;;13.80;51.00;;;;;;6066464;23;20199;-76
2023/03/14 09:17:07;;;;;;;7.47;4.60;;;13.90;50.50;;;;;;6063273;23;20190;-74
2023/03/14 09:19:36;;;;;;;13.07;5.40;;;13.90;50.20;;;;;;6064384;23;20241;-73
2023/03/14 09:22:04;;;;;;;9.87;5.37;;;14.00;49.50;;;;;;6064823;23;20170;-76
2023/03/14 09:24:33;;;;;;;13.60;5.83;;;14.00;47.90;;;;;;6064304;23;20539;-74
2023/03/14 09:27:01;;;;;;;10.00;5.00;;;14.10;47.50;;;;;;6064904;23;20685;-74
2023/03/14 09:29:30;;;;;;;10.40;5.20;;;14.10;47.80;;;;;;6065268;23;20695;-73
2023/03/14 09:31:59;;;;;;;9.80;5.60;;;14.20;46.90;;;;;;6064325;23;20545;-74
2023/03/14 09:34:29;;;;;;;11.30;5.03;;;14.20;46.90;;;;;;6064914;23;20258;-74
2023/03/14 09:36:58;;;;;;;8.90;4.47;;;14.30;46.90;;;;;;6063997;23;20178;-74
2023/03/14 09:39:26;;;;;;;11.13;4.80;;;14.30;45.60;;;;;;6063176;23;20230;-73
2023/03/14 09:41:58;;;;;;;8.47;4.70;;;14.40;46.10;;;;;;6065293;23;20171;-74
2023/03/14 09:44:29;;;;;;;12.43;4.43;;;14.50;46.60;;;;;;6063468;23;20600;-74
2023/03/14 09:47:03;;;;;;;8.53;4.60;;;14.50;45.60;;;;;;6064499;23;20494;-72
2023/03/14 09:49:35;;;;;;;10.63;4.33;;;14.60;46.00;;;;;;6064233;23;20218;-73
2023/03/14 09:52:12;;;;;;;9.17;4.20;;;14.60;44.60;;;;;;6064070;23;20635;-74
2023/03/14 09:54:44;;;;;;;9.23;4.33;;;14.70;44.80;;;;;;6063539;23;20596;-74
2023/03/14 09:57:15;;;;;;;9.77;5.67;;;14.80;46.10;;;;;;6063051;23;20691;-73
2023/03/14 09:59:45;;;;;;;10.43;3.90;;;14.90;44.90;;;;;;6065288;23;20175;-74
2023/03/14 10:02:18;;;;;;;7.33;4.07;;;15.00;44.50;;;;;;6063121;23;20167;-74
2023/03/14 10:04:49;;;;;;;11.00;4.33;;;15.00;43.10;;;;;;6064598;23;20167;-73
2023/03/14 10:07:20;;;;;;;7.60;3.47;;;15.10;43.90;;;;;;6062133;23;20640;-75
2023/03/14 10:09:51;;;;;;;8.37;4.30;;;15.10;42.00;;;;;;6063149;23;20191;-76
2023/03/14 10:12:31;;;;;;;6.93;4.03;;;15.20;42.80;;;;;;6063589;23;20189;-75
2023/03/14 10:15:04;;;;;;;6.57;3.20;;;15.30;43.60;;;;;;6064055;23;20169;-75
2023/03/14 10:17:40;;;;;;;9.57;3.60;;;15.40;44.10;;;;;;6064530;23;20222;-76
2023/03/14 10:20:32;;;;;;;10.10;3.53;;;15.60;44.10;;;;;;6063329;23;20163;-76
2023/03/14 10:23:01;;;;;;;9.63;4.20;;;15.70;44.20;;;;;;6060863;23;20169;-75
2023/03/14 10:25:31;;;;;;;9.80;3.53;;;15.80;43.60;;;;;;6061784;23;20198;-75
2023/03/14 10:28:00;;;;;;;5.20;2.53;;;15.90;44.10;;;;;;6058286;23;20178;-75
2023/03/14 10:30:34;;;;;;;7.40;2.87;;;16.00;43.40;;;;;;6063116;23;20238;-75
2023/03/14 10:33:10;;;;;;;6.27;2.23;;;16.00;41.90;;;;;;6064589;23;20170;-75
2023/03/14 10:35:41;;;;;;;6.47;2.37;;;16.10;42.10;;;;;;6063038;23;20190;-76
2023/03/14 10:38:14;;;;;;;6.77;2.47;;;16.30;41.70;;;;;;6063699;23;20173;-75
2023/03/14 10:40:49;;;;;;;5.27;2.13;;;16.40;41.50;;;;;;6061970;23;20234;-76
2023/03/14 10:43:21;;;;;;;6.20;2.10;;;16.40;41.70;;;;;;6061178;23;20162;-75
2023/03/14 10:45:57;;;;;;;5.27;1.83;;;16.50;39.60;;;;;;6065346;23;20167;-74
2023/03/14 10:48:32;;;;;;;5.33;2.00;;;16.60;40.70;;;;;;6063373;23;20190;-76
2023/03/14 10:51:07;;;;;;;6.27;1.77;;;16.70;39.90;;;;;;6061290;23;20174;-75
2023/03/14 10:53:42;;;;;;;4.73;1.80;;;16.80;40.50;;;;;;6062998;23;20217;-75
2023/03/14 10:56:14;;;;;;;6.80;1.93;;;16.90;39.10;;;;;;6064393;23;20651;-75
2023/03/14 10:58:44;;;;;;;5.30;2.03;;;17.00;39.10;;;;;;6064275;23;20163;-75
2023/03/14 11:01:28;;;;;;;3.37;1.70;;;17.00;38.60;;;;;;6061599;23;20173;-75
2023/03/14 11:04:02;;;;;;;5.07;1.80;;;17.10;37.90;;;;;;6064382;23;20171;-75
2023/03/14 11:06:41;;;;;;;7.07;2.57;;;17.20;38.20;;;;;;6063994;23;20229;-77
2023/03/14 11:09:19;;;;;;;9.13;2.97;;;17.30;38.60;;;;;;6062098;23;20221;-76
2023/03/14 11:11:48;;;;;;;3.43;1.93;;;17.40;38.40;;;;;;6066515;23;20162;-76
2023/03/14 11:14:26;;;;;;;5.67;1.73;;;17.40;36.80;;;;;;6065501;23;20695;-76
2023/03/14 11:17:01;;;;;;;6.67;1.63;;;17.50;37.40;;;;;;6062890;23;20190;-75
2023/03/14 11:19:50;;;;;;;3.63;1.50;;;17.60;37.90;;;;;;6066569;23;20166;-74
2023/03/14 11:22:29;;;;;;;3.72;1.60;;;17.70;36.70;;;;;;6063111;23;20395;-73
2023/03/14 11:25:22;;;;;;;5.20;1.53;;;17.80;36.00;;;;;;6065647;23;20159;-73
2023/03/14 11:28:02;;;;;;;5.20;1.30;;;17.80;34.80;;;;;;6065575;23;20173;-74
2023/03/14 11:30:37;;;;;;;5.83;1.30;;;17.90;35.90;;;;;;6065953;23;20222;-73
2023/03/14 11:33:14;;;;;;;5.10;1.13;;;18.00;35.40;;;;;;6062952;23;20214;-73
2023/03/14 11:35:48;;;;;;;5.50;1.43;;;18.00;35.10;;;;;;6065912;23;20604;-73
2023/03/14 11:38:30;;;;;;;7.43;1.30;;;18.10;34.60;;;;;;6063012;23;20355;-73
2023/03/14 11:40:59;;;;;;;7.70;1.60;;;18.10;35.30;;;;;;6066280;23;20163;-73
2023/03/14 11:43:31;;;;;;;5.27;1.40;;;18.20;35.40;;;;;;6064403;23;20255;-72
2023/03/14 11:46:07;;;;;;;2.63;1.20;;;18.30;35.00;;;;;;6066687;23;20162;-73
2023/03/14 11:48:43;;;;;;;2.40;1.20;;;18.30;35.70;;;;;;6064124;23;20218;-72
2023/03/14 11:51:20;;;;;;;4.33;1.30;;;18.40;34.20;;;;;;6063895;23;20543;-72
2023/03/14 11:54:00;;;;;;;2.80;1.23;;;18.50;34.10;;;;;;6067134;23;20166;-72
2023/03/14 11:56:35;;;;;;;4.10;1.17;;;18.50;33.40;;;;;;6064836;23;20246;-73
2023/03/14 11:59:11;;;;;;;3.53;1.40;;;18.60;34.00;;;;;;6061715;23;20213;-73
2023/03/14 12:01:52;;;;;;;4.50;1.53;;;18.60;34.20;;;;;;6065341;23;20162;-72
2023/03/14 12:04:41;;;;;;;5.53;1.63;;;18.70;33.10;;;;;;6068714;23;20250;-72
2023/03/14 12:07:20;;;;;;;2.47;1.23;;;18.80;33.80;;;;;;6066145;23;20162;-72
2023/03/14 12:09:51;;;;;;;2.50;1.30;;;18.80;34.70;;;;;;6066073;23;20166;-77
2023/03/14 12:12:23;;;;;;;2.13;1.10;;;18.90;34.50;;;;;;6063713;23;20170;-72
2023/03/14 12:14:56;;;;;;;3.43;1.47;;;19.10;35.30;;;;;;6067678;23;20221;-73
2023/03/14 12:17:27;;;;;;;2.40;1.20;;;19.10;33.90;;;;;;6067853;23;20191;-73
2023/03/14 12:20:06;;;;;;;7.13;1.67;;;19.20;34.50;;;;;;6066146;23;20167;-77
2023/03/14 12:22:42;;;;;;;7.17;1.00;;;19.30;34.50;;;;;;6059875;23;20776;-73
2023/03/14 12:25:19;;;;;;;3.17;1.63;;;19.40;34.50;;;;;;6066796;23;20158;-73
2023/03/14 12:28:05;;;;;;;2.13;1.10;;;19.50;33.90;;;;;;6068906;23;20168;-72
2023/03/14 12:30:35;;;;;;;4.53;1.63;;;19.50;32.00;;;;;;6060341;23;20207;-73
2023/03/14 12:33:34;;;;;;;3.80;2.03;;;19.60;32.00;;;;;;6067278;23;20620;-73
2023/03/14 12:36:05;;;;;;;2.80;1.20;;;19.70;31.10;;;;;;6068040;23;20181;-72
2023/03/14 12:38:49;;;;;;;4.60;1.40;;;19.80;32.10;;;;;;6066179;23;20173;-76
2023/03/14 12:41:24;;;;;;;2.57;1.00;;;19.90;31.20;;;;;;6064829;23;20257;-74
2023/03/14 12:43:52;;;;;;;3.15;1.10;;;20.00;31.30;;;;;;6062930;23;20225;-73
2023/03/14 12:46:24;;;;;;;3.00;1.40;;;20.00;30.60;;;;;;6058194;23;20843;-73
2023/03/14 12:48:58;;;;;;;9.38;1.80;;;20.20;31.80;;;;;;6061879;23;20162;-72
2023/03/14 12:51:37;;;;;;;5.70;1.50;;;20.20;31.80;;;;;;6064477;23;20167;-72
2023/03/14 12:54:22;;;;;;;9.48;1.30;;;20.40;31.90;;;;;;6063578;23;20171;-73
2023/03/14 12:57:15;;;;;;;2.33;1.00;;;20.50;32.00;;;;;;6065254;23;20210;-72
2023/03/14 12:59:48;;;;;;;3.28;0.80;;;20.60;29.60;;;;;;6064889;23;20163;-73
2023/03/14 13:02:26;;;;;;;1.80;0.90;;;20.80;30.30;;;;;;6064585;23;20166;-75
2023/03/14 13:05:03;;;;;;;5.63;1.05;;;21.00;31.60;;;;;;6063792;23;20170;-73